Flight Track Log - Related Links

Times and Time Zones

All times are in EDT time to prevent confusion due to time zone crossing. See the SWA1729 flight status page for this flight to view local times or setup timezone preferences in your user account.

Time Position Orientation Groundspeed Altitude Reporting Facility
EDT Latitude Longitude Course Direction KTS MPH feet Rate Location/Type
Mon 07:43:07 PM 36.1000 -86.6833 238° Southwest 142 163 1,300  Level Nashville TRACON
Mon 07:43:49 PM 36.0833 -86.7167 238° Southwest 186 214 2,400 2,353 Climbing Nashville TRACON
Mon 07:44:49 PM 36.1000 -86.8000 284° West 247 284 5,300 3,158 Climbing Nashville TRACON
Mon 07:45:43 PM 36.1000 -86.8833 270° West 288 331 8,400 3,484 Climbing Nashville TRACON
Mon 07:46:22 PM 36.0950 -86.9433 264° West 301 346 10,700 2,848 Climbing Memphis Center
Mon 07:47:22 PM 36.0958 -87.0536 271° West 301 346 13,100 2,200 Climbing Memphis Center
Mon 07:48:22 PM 36.0986 -87.1667 272° West 322 371 15,100 2,200 Climbing Memphis Center
Mon 07:50:22 PM 36.0611 -87.4169 260° West 370 426 19,700 2,300 Climbing Memphis Center
Mon 07:51:22 PM 36.0347 -87.5386 255° West 378 435 22,000 2,050 Climbing Memphis Center
Mon 07:52:22 PM 36.0083 -87.6678 256° West 378 435 23,800 1,800 Climbing Memphis Center
Mon 07:53:22 PM 35.9819 -87.7994 256° West 383 441 25,600 1,600 Climbing Memphis Center
Mon 07:54:22 PM 35.9575 -87.9208 256° West 396 456 27,000 1,500 Climbing Memphis Center
Mon 07:55:22 PM 35.9308 -88.0575 256° West 404 465 28,600 1,900 Climbing Memphis Center
Mon 07:56:22 PM 35.9039 -88.1839 255° West 404 465 30,800 1,850 Climbing Memphis Center
Mon 07:57:22 PM 35.8664 -88.3078 250° West 390 449 32,300 1,550 Climbing Memphis Center
Mon 07:58:22 PM 35.8078 -88.4269 239° Southwest 390 449 33,900 1,600 Climbing Memphis Center
Mon 07:59:22 PM 35.7511 -88.5358 237° Southwest 390 449 35,500 1,050 Climbing Memphis Center
Mon 08:00:22 PM 35.6942 -88.6444 237° Southwest 390 449 36,000 250 Climbing Memphis Center
Mon 08:01:22 PM 35.6394 -88.7553 239° Southwest 390 449 36,000  Level Memphis Center
Mon 08:02:22 PM 35.5864 -88.8636 239° Southwest 385 443 36,000  Level Memphis Center
Mon 08:03:22 PM 35.5275 -88.9897 240° Southwest 385 443 36,000  Level Memphis Center
Mon 08:04:22 PM 35.4681 -89.0978 236° Southwest 385 443 36,000  Level Memphis Center
Mon 08:05:22 PM 35.4150 -89.2056 239° Southwest 385 443 36,000  Level Memphis Center
Mon 08:06:22 PM 35.3597 -89.3183 239° Southwest 385 443 36,000  Level Memphis Center
Mon 08:07:22 PM 35.3022 -89.4258 237° Southwest 391 450 36,000  Level Memphis Center
Mon 08:08:22 PM 35.2467 -89.5358 238° Southwest 386 444 36,000  Level Memphis Center
Mon 08:09:22 PM 35.1908 -89.6456 238° Southwest 386 444 36,000  Level Memphis Center
Mon 08:10:22 PM 35.1372 -89.7578 240° Southwest 391 450 36,000  Level Memphis Center
Mon 08:11:22 PM 35.0814 -89.8700 239° Southwest 391 450 36,000  Level Memphis Center
Mon 08:12:22 PM 35.0192 -89.9767 235° Southwest 391 450 36,000  Level Memphis Center
Mon 08:13:22 PM 34.9319 -90.0658 220° Southwest 404 465 36,000  Level Memphis Center
Mon 08:14:22 PM 34.8403 -90.1497 217° Southwest 417 480 36,000  Level Memphis Center
Mon 08:15:22 PM 34.7464 -90.2358 217° Southwest 428 493 36,000  Level Memphis Center
Mon 08:16:22 PM 34.6547 -90.3192 217° Southwest 428 493 36,000  Level Memphis Center
Mon 08:17:22 PM 34.5714 -90.4100 222° Southwest 415 478 36,000  Level Memphis Center
Mon 08:18:22 PM 34.5147 -90.5183 238° Southwest 393 452 36,000  Level Memphis Center
Mon 08:19:22 PM 34.4603 -90.6292 239° Southwest 388 447 36,000  Level Memphis Center
Mon 08:20:22 PM 34.4100 -90.7247 237° Southwest 388 447 36,000  Level Memphis Center
Mon 08:21:22 PM 34.3533 -90.8350 238° Southwest 382 440 36,000  Level Memphis Center
Mon 08:22:22 PM 34.3008 -90.9406 239° Southwest 382 440 36,000  Level Memphis Center
Mon 08:23:22 PM 34.2458 -91.0481 238° Southwest 382 440 36,000  Level Memphis Center
Mon 08:24:22 PM 34.1911 -91.1606 240° Southwest 382 440 36,000  Level Memphis Center
Mon 08:25:22 PM 34.1339 -91.2631 236° Southwest 382 440 36,000  Level Memphis Center
Mon 08:26:22 PM 34.0767 -91.3828 240° Southwest 382 440 36,000  Level Memphis Center
Mon 08:27:22 PM 34.0217 -91.4900 238° Southwest 377 434 36,000  Level Memphis Center
Mon 08:28:22 PM 33.9664 -91.5944 237° Southwest 383 441 36,000  Level Memphis Center
Mon 08:30:19 PM 33.8644 -91.8033 240° Southwest 380 437 36,000  Level Fort Worth Center
Mon 08:31:19 PM 33.8042 -91.9069 235° Southwest 385 443 36,000  Level Fort Worth Center
Mon 08:32:19 PM 33.7483 -92.0156 238° Southwest 385 443 36,000  Level Fort Worth Center
Mon 08:33:19 PM 33.6925 -92.1236 238° Southwest 385 443 36,000  Level Fort Worth Center
Mon 08:34:19 PM 33.5972 -92.1869 209° Southwest 380 437 36,000  Level Fort Worth Center
Mon 08:35:19 PM 33.4922 -92.2231 196° South 387 445 36,000  Level Fort Worth Center
Mon 08:36:19 PM 33.3747 -92.2572 194° South 414 476 36,000  Level Fort Worth Center
Mon 08:37:19 PM 33.2550 -92.2917 194° South 432 497 36,000  Level Fort Worth Center
Mon 08:38:19 PM 33.1375 -92.3281 195° South 437 503 36,000  Level Fort Worth Center
Mon 08:39:19 PM 33.0181 -92.3647 194° South 437 503 36,000  Level Fort Worth Center
Mon 08:41:41 PM 32.7225 -92.4556 194° South 436 502 36,000  Level Houston Center
Mon 08:42:43 PM 32.6067 -92.4892 194° South 429 494 36,000  Level Houston Center
Mon 08:43:45 PM 32.4994 -92.5189 193° South 431 496 36,000  Level Houston Center
Mon 08:44:47 PM 32.3839 -92.5547 195° South 430 495 36,000  Level Houston Center
Mon 08:45:49 PM 32.2675 -92.5889 194° South 431 496 36,000  Level Houston Center
Mon 08:46:50 PM 32.1278 -92.6306 194° South 432 497 36,000  Level Houston Center
Mon 08:47:52 PM 32.0108 -92.6664 195° South 434 499 36,000  Level Houston Center
Mon 08:48:54 PM 31.9208 -92.7447 216° Southwest 409 471 36,000  Level Houston Center
Mon 08:49:56 PM 31.8456 -92.8389 227° Southwest 398 458 36,000  Level Houston Center
Mon 08:50:57 PM 31.7711 -92.9344 228° Southwest 398 458 36,000  Level Houston Center
Mon 08:51:59 PM 31.6967 -93.0289 227° Southwest 395 455 36,000  Level Houston Center
Mon 08:53:01 PM 31.6067 -93.1422 227° Southwest 397 457 36,000  Level Houston Center
Mon 08:54:02 PM 31.5311 -93.2364 227° Southwest 397 457 36,000  Level Houston Center
Mon 08:55:04 PM 31.4519 -93.3378 228° Southwest 401 461 36,000  Level Houston Center
Mon 08:56:06 PM 31.3764 -93.4333 227° Southwest 401 461 36,000  Level Houston Center
Mon 08:57:07 PM 31.3006 -93.5275 227° Southwest 400 460 36,000  Level Houston Center
Mon 08:58:09 PM 31.2283 -93.6167 227° Southwest 400 460 36,000  Level Houston Center
Mon 08:59:11 PM 31.1536 -93.7117 227° Southwest 400 460 36,000  Level Houston Center
Mon 09:00:12 PM 31.0631 -93.8233 227° Southwest 396 456 36,000  Level Houston Center
Mon 09:01:14 PM 30.9858 -93.9181 226° Southwest 401 461 36,000 -1,355 Level Houston Center
Mon 09:02:16 PM 30.9097 -94.0119 227° Southwest 401 461 33,200 -2,634 Descending Houston Center
Mon 09:03:17 PM 30.8331 -94.1067 227° Southwest 403 464 30,600 -2,390 Descending Houston Center
Mon 09:04:19 PM 30.7583 -94.1964 226° Southwest 394 453 28,300 -2,313 Descending Houston Center
Mon 09:04:53 PM 30.7072 -94.2608 227° Southwest 384 442 26,900 -2,129 Descending Houston Center
Mon 09:05:21 PM 30.6844 -94.2892 227° Southwest 397 457 26,100 -2,562 Descending Houston Center
Mon 09:06:22 PM 30.5900 -94.4025 226° Southwest 407 468 23,100 -2,585 Descending Houston Center
Mon 09:07:24 PM 30.5161 -94.4911 226° Southwest 388 447 20,800 -2,244 Descending Houston Center
Mon 09:08:25 PM 30.4544 -94.5825 232° Southwest 364 419 18,500 -2,339 Descending Houston Center
Mon 09:09:22 PM 30.3925 -94.6758 232° Southwest 360 414 16,200 -2,129 Descending Houston Center
Mon 09:10:29 PM 30.3386 -94.7603 234° Southwest 352 405 14,100 -1,969 Descending Houston Center
Mon 09:11:30 PM 30.2711 -94.8650 233° Southwest 342 394 12,000 -1,463 Descending Houston Center
Mon 09:12:32 PM 30.2172 -94.9483 233° Southwest 329 379 11,100 -439 Descending Houston Center
Mon 09:13:33 PM 30.1564 -95.0197 225° Southwest 318 366 11,100 -49 Level Houston Center
Mon 09:14:34 PM 30.0631 -95.0536 197° South 319 367 11,000 -98 Descending Houston Center
Mon 09:15:35 PM 29.9756 -95.0861 198° South 326 375 10,900 -532 Descending Houston Center
Mon 09:16:38 PM 29.9061 -95.1122 198° South 297 342 9,900 -1,328 Descending Houston Center
Mon 09:17:37 PM 29.8172 -95.1442 197° South 287 330 8,200 -1,512 Descending Houston Center
Mon 09:18:41 PM 29.7558 -95.1675 198° South 280 322 6,800 -1,082 Descending Houston Center
Mon 09:19:39 PM 29.6689 -95.1983 197° South 275 316 6,000 -400 Descending Houston Center
Mon 09:20:41 PM 29.6061 -95.2231 199° South 222 255 6,000 -195 Level Houston Center
Mon 09:21:42 PM 29.5556 -95.2650 216° Southwest 212 244 5,600 -984 Descending Houston Center
Mon 09:22:43 PM 29.5153 -95.3061 222° Southwest 197 227 4,000 -1,820 Descending Houston Center
Mon 09:23:44 PM 29.5522 -95.3447 318° Northwest 199 229 1,900 -1,279 Descending Houston Center
Mon 09:24:45 PM 29.5936 -95.3375 North 127 146 1,400 -639 Descending Houston Center
Mon 09:25:46 PM 29.6200 -95.3053 47° Northeast 146 168 600 -787 Descending Houston Center

Login

Don't have an account? Register now (free) for customized features, flight alerts, and more!